WAT184 LSGG-LFKB
Flight info
| Callsign | WAT184 |
|---|---|
| Flight time | 0h 51m |
| Altitude | 23000 |
| Route | MEDAM DCT NITAM DCT MOGBO DCT LAGEN DCT ANAKI DCT OLETI/N0394F190 M858 LIGUR |
| Aircraft | CL60/M-SADE3FGHIJ3J4J7P2RWXY/HB1D1 |
Departure
| Time | 2026-05-08 21:48 |
|---|---|
| Airport | Geneva International Airport (LSGG) |
Arrival
| Time | 2026-05-08 22:40 |
|---|---|
| Airport | Bastia-Poretta International airport (LFKB) |
| Time | Latitude | Longitude | Altitude | Speed | Heading |
|---|---|---|---|---|---|
| 2026-05-08 21:28 | 46.22546 | 6.09514 | 1396 ft | 0 kts | 314° |
| 2026-05-08 21:46 | 46.22543 | 6.09460 | 1397 ft | 6 kts | 247° |
| 2026-05-08 21:47 | 46.22537 | 6.09387 | 1399 ft | 8 kts | 273° |
| 2026-05-08 21:47 | 46.22546 | 6.09287 | 1401 ft | 13 kts | 278° |
| 2026-05-08 21:47 | 46.22564 | 6.09183 | 1405 ft | 10 kts | 309° |
| 2026-05-08 21:47 | 46.22625 | 6.09168 | 1406 ft | 10 kts | 25° |
| 2026-05-08 21:48 | 46.22658 | 6.09207 | 1405 ft | 15 kts | 45° |
| 2026-05-08 21:48 | 46.22955 | 6.09653 | 1396 ft | 113 kts | 44° |
| 2026-05-08 21:48 | 46.23703 | 6.10726 | 1563 ft | 180 kts | 44° |
| 2026-05-08 21:48 | 46.24651 | 6.12036 | 2499 ft | 200 kts | 44° |
| 2026-05-08 21:49 | 46.25738 | 6.13414 | 3406 ft | 226 kts | 42° |
| 2026-05-08 21:49 | 46.26933 | 6.15107 | 4153 ft | 251 kts | 47° |
| 2026-05-08 21:49 | 46.28143 | 6.16972 | 4953 ft | 262 kts | 51° |
| 2026-05-08 21:49 | 46.29006 | 6.19291 | 5802 ft | 267 kts | 75° |
| 2026-05-08 21:50 | 46.29102 | 6.21978 | 6685 ft | 271 kts | 101° |
| 2026-05-08 21:50 | 46.28366 | 6.24444 | 7559 ft | 275 kts | 128° |
| 2026-05-08 21:50 | 46.26886 | 6.26179 | 8460 ft | 280 kts | 153° |
| 2026-05-08 21:50 | 46.25141 | 6.27409 | 9396 ft | 283 kts | 154° |
| 2026-05-08 21:51 | 46.23369 | 6.28656 | 10342 ft | 286 kts | 154° |
| 2026-05-08 21:51 | 46.21585 | 6.29913 | 11291 ft | 289 kts | 155° |
| 2026-05-08 21:51 | 46.19663 | 6.30787 | 12246 ft | 300 kts | 175° |
| 2026-05-08 21:51 | 46.17532 | 6.30763 | 13299 ft | 311 kts | 183° |
| 2026-05-08 21:52 | 46.15361 | 6.30621 | 14410 ft | 318 kts | 183° |
| 2026-05-08 21:52 | 46.13148 | 6.30487 | 15562 ft | 323 kts | 183° |
| 2026-05-08 21:52 | 46.10831 | 6.30345 | 16177 ft | 344 kts | 183° |
| 2026-05-08 21:52 | 46.08361 | 6.30194 | 16451 ft | 371 kts | 183° |
| 2026-05-08 21:53 | 46.05724 | 6.30034 | 17088 ft | 386 kts | 183° |
| 2026-05-08 21:53 | 46.03000 | 6.29871 | 17903 ft | 393 kts | 183° |
| 2026-05-08 21:53 | 46.00245 | 6.29706 | 18723 ft | 398 kts | 183° |
| 2026-05-08 21:53 | 45.97445 | 6.29539 | 19569 ft | 403 kts | 184° |
| 2026-05-08 21:54 | 45.94661 | 6.29374 | 20331 ft | 407 kts | 183° |
| 2026-05-08 21:54 | 45.91814 | 6.29280 | 21043 ft | 413 kts | 179° |
| 2026-05-08 21:54 | 45.88942 | 6.30021 | 21748 ft | 420 kts | 163° |
| 2026-05-08 21:54 | 45.86308 | 6.31880 | 22367 ft | 428 kts | 147° |
| 2026-05-08 21:55 | 45.83883 | 6.34427 | 22887 ft | 435 kts | 144° |
| 2026-05-08 21:55 | 45.81418 | 6.37059 | 23119 ft | 442 kts | 144° |
| 2026-05-08 21:55 | 45.78954 | 6.39680 | 23157 ft | 441 kts | 144° |
| 2026-05-08 21:56 | 45.74041 | 6.44895 | 23152 ft | 437 kts | 145° |
| 2026-05-08 21:56 | 45.71573 | 6.47510 | 23152 ft | 437 kts | 145° |
| 2026-05-08 21:56 | 45.69135 | 6.50089 | 23153 ft | 438 kts | 145° |
| 2026-05-08 21:56 | 45.66680 | 6.52683 | 23159 ft | 438 kts | 145° |
| 2026-05-08 21:57 | 45.64228 | 6.55269 | 23161 ft | 438 kts | 145° |
| 2026-05-08 21:57 | 45.61780 | 6.57849 | 23155 ft | 438 kts | 145° |
| 2026-05-08 21:57 | 45.59322 | 6.60437 | 23154 ft | 438 kts | 145° |
| 2026-05-08 21:57 | 45.56864 | 6.63022 | 23150 ft | 438 kts | 145° |
| 2026-05-08 21:58 | 45.54388 | 6.65622 | 23131 ft | 437 kts | 146° |
| 2026-05-08 21:58 | 45.51950 | 6.68179 | 23129 ft | 437 kts | 146° |
| 2026-05-08 21:58 | 45.49488 | 6.70759 | 23135 ft | 437 kts | 146° |
| 2026-05-08 21:58 | 45.47021 | 6.73340 | 23141 ft | 437 kts | 146° |
| 2026-05-08 21:59 | 45.44564 | 6.75877 | 23145 ft | 437 kts | 147° |
| 2026-05-08 21:59 | 45.42073 | 6.78382 | 23142 ft | 437 kts | 147° |
| 2026-05-08 21:59 | 45.39592 | 6.80872 | 23144 ft | 437 kts | 147° |
| 2026-05-08 21:59 | 45.37082 | 6.83388 | 23149 ft | 436 kts | 147° |
| 2026-05-08 22:00 | 45.34583 | 6.85892 | 23154 ft | 436 kts | 147° |
| 2026-05-08 22:00 | 45.32116 | 6.88360 | 23159 ft | 436 kts | 147° |
| 2026-05-08 22:00 | 45.29635 | 6.90841 | 23161 ft | 437 kts | 147° |
| 2026-05-08 22:00 | 45.27130 | 6.93348 | 23157 ft | 437 kts | 146° |
| 2026-05-08 22:01 | 45.24825 | 6.96172 | 23155 ft | 439 kts | 137° |
| 2026-05-08 22:01 | 45.22656 | 6.99185 | 23157 ft | 439 kts | 137° |
| 2026-05-08 22:01 | 45.20441 | 7.02247 | 23161 ft | 439 kts | 137° |
| 2026-05-08 22:01 | 45.18252 | 7.05268 | 23158 ft | 440 kts | 137° |
| 2026-05-08 22:02 | 45.16042 | 7.08314 | 23154 ft | 440 kts | 137° |
| 2026-05-08 22:02 | 45.13837 | 7.11347 | 23156 ft | 440 kts | 137° |
| 2026-05-08 22:02 | 45.11643 | 7.14362 | 23155 ft | 440 kts | 137° |
| 2026-05-08 22:02 | 45.09652 | 7.17639 | 23149 ft | 442 kts | 127° |
| 2026-05-08 22:03 | 45.07887 | 7.21218 | 23138 ft | 442 kts | 126° |
| 2026-05-08 22:03 | 45.06127 | 7.24784 | 23154 ft | 441 kts | 126° |
| 2026-05-08 22:03 | 45.04372 | 7.28326 | 23169 ft | 441 kts | 126° |
| 2026-05-08 22:03 | 45.02610 | 7.31879 | 23171 ft | 441 kts | 126° |
| 2026-05-08 22:04 | 45.00833 | 7.35455 | 23173 ft | 441 kts | 126° |
| 2026-05-08 22:04 | 44.99057 | 7.39023 | 23157 ft | 441 kts | 126° |
| 2026-05-08 22:04 | 44.97265 | 7.42497 | 23154 ft | 441 kts | 128° |
| 2026-05-08 22:04 | 44.95427 | 7.45976 | 23132 ft | 441 kts | 128° |
| 2026-05-08 22:05 | 44.93589 | 7.49449 | 23131 ft | 442 kts | 128° |
| 2026-05-08 22:05 | 44.91760 | 7.52902 | 23117 ft | 442 kts | 128° |
| 2026-05-08 22:05 | 44.89912 | 7.56386 | 23122 ft | 442 kts | 128° |
| 2026-05-08 22:05 | 44.88029 | 7.59930 | 23120 ft | 442 kts | 128° |
| 2026-05-08 22:06 | 44.86195 | 7.63377 | 23115 ft | 442 kts | 128° |
| 2026-05-08 22:06 | 44.84358 | 7.66826 | 23109 ft | 442 kts | 129° |
| 2026-05-08 22:06 | 44.82504 | 7.70301 | 23117 ft | 441 kts | 128° |
| 2026-05-08 22:06 | 44.80652 | 7.73768 | 23111 ft | 442 kts | 128° |
| 2026-05-08 22:07 | 44.78822 | 7.77189 | 23105 ft | 443 kts | 128° |
| 2026-05-08 22:07 | 44.76967 | 7.80653 | 23097 ft | 443 kts | 128° |
| 2026-05-08 22:07 | 44.75105 | 7.84126 | 23100 ft | 443 kts | 128° |
| 2026-05-08 22:07 | 44.73240 | 7.87600 | 23112 ft | 443 kts | 128° |
| 2026-05-08 22:08 | 44.71363 | 7.91090 | 23100 ft | 444 kts | 128° |
| 2026-05-08 22:08 | 44.69499 | 7.94554 | 23098 ft | 444 kts | 128° |
| 2026-05-08 22:08 | 44.67632 | 7.98018 | 23100 ft | 444 kts | 128° |
| 2026-05-08 22:08 | 44.65759 | 8.01488 | 23100 ft | 443 kts | 129° |
| 2026-05-08 22:09 | 44.63897 | 8.04935 | 23099 ft | 444 kts | 129° |
| 2026-05-08 22:09 | 44.62033 | 8.08381 | 23101 ft | 444 kts | 128° |
| 2026-05-08 22:09 | 44.60180 | 8.11803 | 23101 ft | 444 kts | 129° |
| 2026-05-08 22:09 | 44.58296 | 8.15277 | 23098 ft | 444 kts | 128° |
| 2026-05-08 22:10 | 44.56423 | 8.18726 | 23098 ft | 444 kts | 128° |
| 2026-05-08 22:10 | 44.54539 | 8.22193 | 23098 ft | 444 kts | 128° |
| 2026-05-08 22:10 | 44.52671 | 8.25623 | 23093 ft | 444 kts | 128° |
| 2026-05-08 22:10 | 44.50800 | 8.29058 | 23097 ft | 445 kts | 128° |
| 2026-05-08 22:11 | 44.48914 | 8.32515 | 23090 ft | 445 kts | 128° |
| 2026-05-08 22:11 | 44.47048 | 8.35930 | 23096 ft | 445 kts | 128° |
| 2026-05-08 22:11 | 44.45158 | 8.39387 | 23093 ft | 446 kts | 128° |
| 2026-05-08 22:11 | 44.43266 | 8.42843 | 23084 ft | 445 kts | 128° |
| 2026-05-08 22:12 | 44.41370 | 8.46301 | 23087 ft | 445 kts | 128° |
| 2026-05-08 22:12 | 44.39444 | 8.49672 | 23084 ft | 444 kts | 134° |
| 2026-05-08 22:12 | 44.37130 | 8.52590 | 23073 ft | 443 kts | 141° |
| 2026-05-08 22:12 | 44.34783 | 8.55347 | 23064 ft | 443 kts | 141° |
| 2026-05-08 22:13 | 44.32413 | 8.58141 | 23075 ft | 443 kts | 141° |
| 2026-05-08 22:13 | 44.30033 | 8.60944 | 23067 ft | 444 kts | 141° |
| 2026-05-08 22:13 | 44.27668 | 8.63728 | 23067 ft | 444 kts | 141° |
| 2026-05-08 22:13 | 44.25277 | 8.66538 | 23070 ft | 444 kts | 142° |
| 2026-05-08 22:14 | 44.22888 | 8.69343 | 23062 ft | 445 kts | 142° |
| 2026-05-08 22:14 | 44.20521 | 8.72120 | 23064 ft | 445 kts | 142° |
| 2026-05-08 22:14 | 44.18156 | 8.74890 | 23070 ft | 445 kts | 142° |
| 2026-05-08 22:14 | 44.15784 | 8.77663 | 23058 ft | 445 kts | 142° |
| 2026-05-08 22:15 | 44.13421 | 8.80421 | 23055 ft | 445 kts | 142° |
| 2026-05-08 22:15 | 44.11052 | 8.83182 | 23056 ft | 446 kts | 142° |
| 2026-05-08 22:15 | 44.08649 | 8.85978 | 23055 ft | 446 kts | 142° |
| 2026-05-08 22:15 | 44.06268 | 8.88744 | 23054 ft | 446 kts | 142° |
| 2026-05-08 22:16 | 44.03766 | 8.91311 | 23062 ft | 443 kts | 153° |
| 2026-05-08 22:16 | 44.00926 | 8.92829 | 23049 ft | 440 kts | 166° |
| 2026-05-08 22:16 | 43.97986 | 8.94007 | 23046 ft | 441 kts | 166° |
| 2026-05-08 22:16 | 43.95015 | 8.95211 | 23053 ft | 440 kts | 166° |
| 2026-05-08 22:17 | 43.92068 | 8.96405 | 23053 ft | 441 kts | 166° |
| 2026-05-08 22:17 | 43.89100 | 8.97606 | 23055 ft | 441 kts | 166° |
| 2026-05-08 22:17 | 43.86164 | 8.98793 | 22949 ft | 443 kts | 166° |
| 2026-05-08 22:17 | 43.83192 | 8.99986 | 22467 ft | 444 kts | 167° |
| 2026-05-08 22:18 | 43.80159 | 9.00659 | 21930 ft | 431 kts | 181° |
| 2026-05-08 22:18 | 43.77211 | 9.00435 | 21359 ft | 424 kts | 187° |
| 2026-05-08 22:18 | 43.74304 | 9.00084 | 20817 ft | 420 kts | 187° |
| 2026-05-08 22:18 | 43.71392 | 8.99742 | 20261 ft | 416 kts | 186° |
| 2026-05-08 22:19 | 43.68543 | 8.99409 | 19721 ft | 412 kts | 186° |
| 2026-05-08 22:19 | 43.65672 | 8.99073 | 19172 ft | 409 kts | 186° |
| 2026-05-08 22:19 | 43.62869 | 8.98745 | 18631 ft | 405 kts | 186° |
| 2026-05-08 22:19 | 43.60072 | 8.98419 | 18096 ft | 397 kts | 186° |
| 2026-05-08 22:20 | 43.57337 | 8.98100 | 17572 ft | 385 kts | 186° |
| 2026-05-08 22:20 | 43.54720 | 8.97796 | 17064 ft | 373 kts | 186° |
| 2026-05-08 22:20 | 43.52186 | 8.97488 | 16586 ft | 360 kts | 186° |
| 2026-05-08 22:20 | 43.49696 | 8.97180 | 16113 ft | 349 kts | 187° |
| 2026-05-08 22:21 | 43.47298 | 8.96883 | 15655 ft | 340 kts | 187° |
| 2026-05-08 22:21 | 43.44996 | 8.96598 | 15213 ft | 331 kts | 187° |
| 2026-05-08 22:21 | 43.42719 | 8.96317 | 14780 ft | 323 kts | 187° |
| 2026-05-08 22:21 | 43.40492 | 8.96042 | 14354 ft | 317 kts | 187° |
| 2026-05-08 22:22 | 43.38298 | 8.95773 | 13940 ft | 313 kts | 187° |
| 2026-05-08 22:22 | 43.36256 | 8.95041 | 13632 ft | 301 kts | 210° |
| 2026-05-08 22:22 | 43.34506 | 8.93509 | 13490 ft | 300 kts | 211° |
| 2026-05-08 22:22 | 43.32490 | 8.92658 | 13301 ft | 307 kts | 184° |
| 2026-05-08 22:23 | 43.30404 | 8.93172 | 13108 ft | 309 kts | 157° |
| 2026-05-08 22:23 | 43.28487 | 8.94574 | 12813 ft | 311 kts | 151° |
| 2026-05-08 22:23 | 43.26627 | 8.96063 | 12440 ft | 309 kts | 150° |
| 2026-05-08 22:23 | 43.24765 | 8.97552 | 12087 ft | 306 kts | 150° |
| 2026-05-08 22:24 | 43.22920 | 8.99025 | 11736 ft | 304 kts | 150° |
| 2026-05-08 22:24 | 43.21083 | 9.00485 | 11385 ft | 303 kts | 150° |
| 2026-05-08 22:24 | 43.19270 | 9.01920 | 11037 ft | 301 kts | 150° |
| 2026-05-08 22:24 | 43.17450 | 9.03354 | 10683 ft | 299 kts | 150° |
| 2026-05-08 22:25 | 43.15655 | 9.04766 | 10337 ft | 298 kts | 150° |
| 2026-05-08 22:25 | 43.13876 | 9.06161 | 9990 ft | 293 kts | 150° |
| 2026-05-08 22:25 | 43.12124 | 9.07530 | 9643 ft | 288 kts | 150° |
| 2026-05-08 22:25 | 43.10393 | 9.08882 | 9298 ft | 283 kts | 150° |
| 2026-05-08 22:26 | 43.08678 | 9.10218 | 8947 ft | 279 kts | 150° |
| 2026-05-08 22:26 | 43.07025 | 9.11538 | 8603 ft | 274 kts | 146° |
| 2026-05-08 22:26 | 43.05529 | 9.13138 | 8253 ft | 270 kts | 140° |
| 2026-05-08 22:26 | 43.04107 | 9.14785 | 7905 ft | 267 kts | 139° |
| 2026-05-08 22:27 | 43.02691 | 9.16427 | 7554 ft | 263 kts | 139° |
| 2026-05-08 22:27 | 43.01313 | 9.18021 | 7249 ft | 258 kts | 139° |
| 2026-05-08 22:27 | 42.99947 | 9.19595 | 6978 ft | 252 kts | 139° |
| 2026-05-08 22:27 | 42.98633 | 9.21102 | 6723 ft | 240 kts | 139° |
| 2026-05-08 22:28 | 42.97375 | 9.22533 | 6455 ft | 224 kts | 139° |
| 2026-05-08 22:28 | 42.96214 | 9.23847 | 6201 ft | 211 kts | 139° |
| 2026-05-08 22:28 | 42.95101 | 9.25097 | 5936 ft | 200 kts | 139° |
| 2026-05-08 22:28 | 42.94051 | 9.26275 | 5696 ft | 190 kts | 139° |
| 2026-05-08 22:29 | 42.93068 | 9.27373 | 5568 ft | 175 kts | 139° |
| 2026-05-08 22:29 | 42.92162 | 9.28381 | 5465 ft | 161 kts | 139° |
| 2026-05-08 22:29 | 42.91297 | 9.29339 | 5351 ft | 163 kts | 139° |
| 2026-05-08 22:29 | 42.90396 | 9.30341 | 5224 ft | 168 kts | 139° |
| 2026-05-08 22:30 | 42.89497 | 9.31334 | 5103 ft | 169 kts | 139° |
| 2026-05-08 22:30 | 42.88584 | 9.32345 | 4980 ft | 169 kts | 139° |
| 2026-05-08 22:30 | 42.87667 | 9.33359 | 4855 ft | 169 kts | 139° |
| 2026-05-08 22:30 | 42.86772 | 9.34373 | 4753 ft | 168 kts | 137° |
| 2026-05-08 22:31 | 42.85889 | 9.35429 | 4745 ft | 167 kts | 135° |
| 2026-05-08 22:31 | 42.85142 | 9.36649 | 4775 ft | 168 kts | 122° |
| 2026-05-08 22:31 | 42.84498 | 9.37985 | 4881 ft | 167 kts | 121° |
| 2026-05-08 22:31 | 42.83860 | 9.39310 | 4985 ft | 169 kts | 123° |
| 2026-05-08 22:32 | 42.83152 | 9.40616 | 5027 ft | 164 kts | 126° |
| 2026-05-08 22:32 | 42.82459 | 9.41809 | 4827 ft | 158 kts | 129° |
| 2026-05-08 22:32 | 42.81640 | 9.42775 | 4552 ft | 154 kts | 142° |
| 2026-05-08 22:32 | 42.80743 | 9.43512 | 4217 ft | 148 kts | 151° |
| 2026-05-08 22:33 | 42.79799 | 9.43986 | 3987 ft | 138 kts | 162° |
| 2026-05-08 22:33 | 42.78818 | 9.44195 | 4093 ft | 146 kts | 173° |
| 2026-05-08 22:33 | 42.77768 | 9.44271 | 4224 ft | 151 kts | 175° |
| 2026-05-08 22:33 | 42.76736 | 9.44318 | 4224 ft | 142 kts | 174° |
| 2026-05-08 22:34 | 42.75705 | 9.44383 | 4219 ft | 149 kts | 176° |
| 2026-05-08 22:34 | 42.74688 | 9.44373 | 4219 ft | 139 kts | 179° |
| 2026-05-08 22:34 | 42.73725 | 9.44372 | 4167 ft | 141 kts | 176° |
| 2026-05-08 22:34 | 42.72698 | 9.44394 | 4290 ft | 146 kts | 176° |
| 2026-05-08 22:35 | 42.71698 | 9.44414 | 4244 ft | 143 kts | 176° |
| 2026-05-08 22:35 | 42.70710 | 9.44393 | 4214 ft | 133 kts | 179° |
| 2026-05-08 22:35 | 42.69845 | 9.44333 | 3982 ft | 123 kts | 179° |
| 2026-05-08 22:35 | 42.68835 | 9.44288 | 4005 ft | 157 kts | 178° |
| 2026-05-08 22:36 | 42.67795 | 9.44324 | 3986 ft | 149 kts | 175° |
| 2026-05-08 22:36 | 42.66781 | 9.44373 | 3694 ft | 140 kts | 174° |
| 2026-05-08 22:36 | 42.65834 | 9.44506 | 3243 ft | 136 kts | 171° |
| 2026-05-08 22:36 | 42.64887 | 9.44696 | 2675 ft | 141 kts | 168° |
| 2026-05-08 22:37 | 42.63952 | 9.44951 | 2240 ft | 135 kts | 164° |
| 2026-05-08 22:37 | 42.63058 | 9.45266 | 1752 ft | 136 kts | 163° |
| 2026-05-08 22:37 | 42.62136 | 9.45575 | 1325 ft | 128 kts | 162° |
| 2026-05-08 22:37 | 42.61240 | 9.45931 | 1149 ft | 132 kts | 162° |
| 2026-05-08 22:38 | 42.60412 | 9.46274 | 913 ft | 123 kts | 160° |
| 2026-05-08 22:38 | 42.59517 | 9.46654 | 909 ft | 132 kts | 162° |
| 2026-05-08 22:38 | 42.58694 | 9.47010 | 653 ft | 118 kts | 163° |
| 2026-05-08 22:38 | 42.57841 | 9.47362 | 472 ft | 130 kts | 164° |
| 2026-05-08 22:39 | 42.57027 | 9.47665 | 223 ft | 116 kts | 164° |
| 2026-05-08 22:39 | 42.56215 | 9.47990 | 51 ft | 121 kts | 164° |
| 2026-05-08 22:39 | 42.55468 | 9.48284 | 20 ft | 98 kts | 161° |
| 2026-05-08 22:39 | 42.54900 | 9.48527 | 24 ft | 70 kts | 162° |
| 2026-05-08 22:40 | 42.54561 | 9.48671 | 25 ft | 43 kts | 162° |
| 2026-05-08 22:40 | 42.54327 | 9.48771 | 24 ft | 20 kts | 165° |
| 2026-05-08 22:40 | 42.54225 | 9.48801 | 24 ft | 12 kts | 182° |
| 2026-05-08 22:40 | 42.54143 | 9.48728 | 27 ft | 15 kts | 233° |
| 2026-05-08 22:41 | 42.54135 | 9.48589 | 27 ft | 15 kts | 290° |
| 2026-05-08 22:41 | 42.54230 | 9.48483 | 27 ft | 22 kts | 343° |
| 2026-05-08 22:41 | 42.54361 | 9.48431 | 28 ft | 15 kts | 344° |
| 2026-05-08 22:41 | 42.54402 | 9.48403 | 29 ft | 8 kts | 293° |
| 2026-05-08 22:42 | 42.54414 | 9.48332 | 31 ft | 6 kts | 283° |
| 2026-05-08 22:42 | 42.54416 | 9.48325 | 31 ft | 0 kts | 283° |